sensor_id;sensor_type;location;lat;lon;timestamp;P1;durP1;ratioP1;P2;durP2;ratioP2
58864;SDS011;45702;52.982;6.658;2023-12-20T00:01:49;20.70;;;3.40;;
58864;SDS011;45702;52.982;6.658;2023-12-20T00:04:15;19.65;;;3.08;;
58864;SDS011;45702;52.982;6.658;2023-12-20T00:06:41;20.52;;;3.55;;
58864;SDS011;45702;52.982;6.658;2023-12-20T00:09:07;24.05;;;3.53;;
58864;SDS011;45702;52.982;6.658;2023-12-20T00:11:33;24.80;;;3.15;;
58864;SDS011;45702;52.982;6.658;2023-12-20T00:13:59;28.73;;;3.22;;
58864;SDS011;45702;52.982;6.658;2023-12-20T00:16:25;27.88;;;3.10;;
58864;SDS011;45702;52.982;6.658;2023-12-20T00:18:52;18.83;;;2.88;;
58864;SDS011;45702;52.982;6.658;2023-12-20T00:21:18;32.85;;;3.15;;
58864;SDS011;45702;52.982;6.658;2023-12-20T00:23:44;24.00;;;3.35;;
58864;SDS011;45702;52.982;6.658;2023-12-20T00:26:10;20.48;;;2.83;;
58864;SDS011;45702;52.982;6.658;2023-12-20T00:28:36;16.70;;;3.60;;
58864;SDS011;45702;52.982;6.658;2023-12-20T00:31:02;25.77;;;3.30;;
58864;SDS011;45702;52.982;6.658;2023-12-20T00:33:29;32.97;;;2.80;;
58864;SDS011;45702;52.982;6.658;2023-12-20T00:35:55;19.13;;;2.97;;
58864;SDS011;45702;52.982;6.658;2023-12-20T00:38:21;14.88;;;2.83;;
58864;SDS011;45702;52.982;6.658;2023-12-20T00:40:48;26.33;;;3.10;;
58864;SDS011;45702;52.982;6.658;2023-12-20T00:43:14;20.45;;;3.00;;
58864;SDS011;45702;52.982;6.658;2023-12-20T00:45:41;27.02;;;2.88;;
58864;SDS011;45702;52.982;6.658;2023-12-20T00:48:07;31.17;;;3.35;;
58864;SDS011;45702;52.982;6.658;2023-12-20T00:50:33;16.40;;;3.17;;
58864;SDS011;45702;52.982;6.658;2023-12-20T00:52:59;25.13;;;3.10;;
58864;SDS011;45702;52.982;6.658;2023-12-20T00:55:25;29.58;;;3.35;;
58864;SDS011;45702;52.982;6.658;2023-12-20T00:57:51;23.17;;;3.10;;
58864;SDS011;45702;52.982;6.658;2023-12-20T01:00:18;22.00;;;3.10;;
58864;SDS011;45702;52.982;6.658;2023-12-20T01:02:44;28.38;;;3.13;;
58864;SDS011;45702;52.982;6.658;2023-12-20T01:05:14;27.83;;;3.42;;
58864;SDS011;45702;52.982;6.658;2023-12-20T01:07:40;27.88;;;3.30;;
58864;SDS011;45702;52.982;6.658;2023-12-20T01:10:06;24.65;;;3.65;;
58864;SDS011;45702;52.982;6.658;2023-12-20T01:12:32;25.38;;;3.50;;
58864;SDS011;45702;52.982;6.658;2023-12-20T01:14:58;19.05;;;3.78;;
58864;SDS011;45702;52.982;6.658;2023-12-20T01:17:24;27.15;;;3.45;;
58864;SDS011;45702;52.982;6.658;2023-12-20T01:19:50;33.47;;;3.42;;
58864;SDS011;45702;52.982;6.658;2023-12-20T01:22:16;36.05;;;4.80;;
58864;SDS011;45702;52.982;6.658;2023-12-20T01:24:42;31.80;;;3.90;;
58864;SDS011;45702;52.982;6.658;2023-12-20T01:27:09;33.15;;;3.50;;
58864;SDS011;45702;52.982;6.658;2023-12-20T01:29:35;31.58;;;4.10;;
58864;SDS011;45702;52.982;6.658;2023-12-20T01:32:01;35.35;;;4.32;;
58864;SDS011;45702;52.982;6.658;2023-12-20T01:34:27;34.67;;;4.28;;
58864;SDS011;45702;52.982;6.658;2023-12-20T01:36:53;30.20;;;3.45;;
58864;SDS011;45702;52.982;6.658;2023-12-20T01:39:19;28.60;;;3.70;;
58864;SDS011;45702;52.982;6.658;2023-12-20T01:41:45;25.60;;;3.55;;
58864;SDS011;45702;52.982;6.658;2023-12-20T01:44:11;28.65;;;4.38;;
58864;SDS011;45702;52.982;6.658;2023-12-20T01:46:37;28.63;;;4.07;;
58864;SDS011;45702;52.982;6.658;2023-12-20T01:49:04;33.13;;;3.88;;
58864;SDS011;45702;52.982;6.658;2023-12-20T01:51:30;29.73;;;4.22;;
58864;SDS011;45702;52.982;6.658;2023-12-20T01:53:56;23.67;;;3.45;;
58864;SDS011;45702;52.982;6.658;2023-12-20T01:56:24;23.83;;;3.33;;
58864;SDS011;45702;52.982;6.658;2023-12-20T01:58:50;22.83;;;3.58;;
58864;SDS011;45702;52.982;6.658;2023-12-20T02:01:16;30.27;;;4.15;;
58864;SDS011;45702;52.982;6.658;2023-12-20T02:03:42;28.48;;;4.00;;
58864;SDS011;45702;52.982;6.658;2023-12-20T02:06:09;25.60;;;3.78;;
58864;SDS011;45702;52.982;6.658;2023-12-20T02:08:35;31.77;;;4.07;;
58864;SDS011;45702;52.982;6.658;2023-12-20T02:11:01;30.27;;;4.57;;
58864;SDS011;45702;52.982;6.658;2023-12-20T02:13:27;24.98;;;3.90;;
58864;SDS011;45702;52.982;6.658;2023-12-20T02:15:54;34.22;;;4.50;;
58864;SDS011;45702;52.982;6.658;2023-12-20T02:18:20;36.35;;;4.35;;
58864;SDS011;45702;52.982;6.658;2023-12-20T02:20:46;28.08;;;4.40;;
58864;SDS011;45702;52.982;6.658;2023-12-20T02:23:12;31.83;;;4.00;;
58864;SDS011;45702;52.982;6.658;2023-12-20T02:25:38;31.05;;;4.20;;
58864;SDS011;45702;52.982;6.658;2023-12-20T02:28:05;34.50;;;4.03;;
58864;SDS011;45702;52.982;6.658;2023-12-20T02:30:32;29.92;;;3.92;;
58864;SDS011;45702;52.982;6.658;2023-12-20T02:32:59;30.98;;;4.32;;
58864;SDS011;45702;52.982;6.658;2023-12-20T02:35:25;33.58;;;4.35;;
58864;SDS011;45702;52.982;6.658;2023-12-20T02:37:51;40.97;;;5.20;;
58864;SDS011;45702;52.982;6.658;2023-12-20T02:40:17;40.63;;;4.80;;
58864;SDS011;45702;52.982;6.658;2023-12-20T02:42:43;40.55;;;4.93;;
58864;SDS011;45702;52.982;6.658;2023-12-20T02:45:09;35.58;;;4.00;;
58864;SDS011;45702;52.982;6.658;2023-12-20T02:47:35;38.50;;;4.15;;
58864;SDS011;45702;52.982;6.658;2023-12-20T02:50:01;42.50;;;4.53;;
58864;SDS011;45702;52.982;6.658;2023-12-20T02:52:28;43.85;;;4.55;;
58864;SDS011;45702;52.982;6.658;2023-12-20T02:54:55;29.95;;;4.72;;
58864;SDS011;45702;52.982;6.658;2023-12-20T02:57:21;32.47;;;4.57;;
58864;SDS011;45702;52.982;6.658;2023-12-20T02:59:47;29.50;;;4.35;;
58864;SDS011;45702;52.982;6.658;2023-12-20T03:02:13;40.00;;;4.78;;
58864;SDS011;45702;52.982;6.658;2023-12-20T03:04:39;34.28;;;5.00;;
58864;SDS011;45702;52.982;6.658;2023-12-20T03:07:05;41.65;;;4.28;;
58864;SDS011;45702;52.982;6.658;2023-12-20T03:09:31;30.40;;;4.15;;
58864;SDS011;45702;52.982;6.658;2023-12-20T03:11:57;30.65;;;4.20;;
58864;SDS011;45702;52.982;6.658;2023-12-20T03:14:23;40.13;;;4.93;;
58864;SDS011;45702;52.982;6.658;2023-12-20T03:16:49;38.53;;;4.78;;
58864;SDS011;45702;52.982;6.658;2023-12-20T03:19:16;45.90;;;4.55;;
58864;SDS011;45702;52.982;6.658;2023-12-20T03:21:42;40.80;;;4.70;;
58864;SDS011;45702;52.982;6.658;2023-12-20T03:24:08;33.13;;;4.63;;
58864;SDS011;45702;52.982;6.658;2023-12-20T03:26:34;39.60;;;5.10;;
58864;SDS011;45702;52.982;6.658;2023-12-20T03:29:00;37.05;;;5.03;;
58864;SDS011;45702;52.982;6.658;2023-12-20T03:31:26;36.60;;;4.45;;
58864;SDS011;45702;52.982;6.658;2023-12-20T03:33:52;39.30;;;4.70;;
58864;SDS011;45702;52.982;6.658;2023-12-20T03:36:19;41.20;;;5.07;;
58864;SDS011;45702;52.982;6.658;2023-12-20T03:38:45;38.08;;;5.38;;
58864;SDS011;45702;52.982;6.658;2023-12-20T03:41:11;52.80;;;5.60;;
58864;SDS011;45702;52.982;6.658;2023-12-20T03:43:37;39.58;;;4.75;;
58864;SDS011;45702;52.982;6.658;2023-12-20T03:46:03;39.70;;;5.03;;
58864;SDS011;45702;52.982;6.658;2023-12-20T03:48:30;39.03;;;4.95;;
58864;SDS011;45702;52.982;6.658;2023-12-20T03:50:56;47.78;;;4.70;;
58864;SDS011;45702;52.982;6.658;2023-12-20T03:53:22;36.70;;;4.55;;
58864;SDS011;45702;52.982;6.658;2023-12-20T03:55:49;45.05;;;5.78;;
58864;SDS011;45702;52.982;6.658;2023-12-20T03:58:15;41.47;;;5.57;;
58864;SDS011;45702;52.982;6.658;2023-12-20T04:00:41;43.10;;;5.45;;
58864;SDS011;45702;52.982;6.658;2023-12-20T04:03:07;58.10;;;5.85;;
58864;SDS011;45702;52.982;6.658;2023-12-20T04:05:33;42.92;;;5.05;;
58864;SDS011;45702;52.982;6.658;2023-12-20T04:08:01;36.58;;;6.25;;
58864;SDS011;45702;52.982;6.658;2023-12-20T04:10:27;45.42;;;5.75;;
58864;SDS011;45702;52.982;6.658;2023-12-20T04:12:53;46.83;;;6.47;;
58864;SDS011;45702;52.982;6.658;2023-12-20T04:15:20;38.22;;;5.43;;
58864;SDS011;45702;52.982;6.658;2023-12-20T04:17:46;50.55;;;6.15;;
58864;SDS011;45702;52.982;6.658;2023-12-20T04:20:12;43.03;;;5.80;;
58864;SDS011;45702;52.982;6.658;2023-12-20T04:22:38;49.85;;;6.00;;
58864;SDS011;45702;52.982;6.658;2023-12-20T04:25:04;47.15;;;6.03;;
58864;SDS011;45702;52.982;6.658;2023-12-20T04:27:31;41.80;;;5.68;;
58864;SDS011;45702;52.982;6.658;2023-12-20T04:29:57;45.75;;;5.30;;
58864;SDS011;45702;52.982;6.658;2023-12-20T04:32:23;44.88;;;6.45;;
58864;SDS011;45702;52.982;6.658;2023-12-20T04:34:49;44.33;;;5.57;;
58864;SDS011;45702;52.982;6.658;2023-12-20T04:37:15;43.63;;;5.18;;
58864;SDS011;45702;52.982;6.658;2023-12-20T04:39:41;43.70;;;5.15;;
58864;SDS011;45702;52.982;6.658;2023-12-20T04:42:07;48.60;;;5.75;;
58864;SDS011;45702;52.982;6.658;2023-12-20T04:44:33;42.13;;;5.47;;
58864;SDS011;45702;52.982;6.658;2023-12-20T04:47:00;42.53;;;5.32;;
58864;SDS011;45702;52.982;6.658;2023-12-20T04:49:26;46.55;;;5.80;;
58864;SDS011;45702;52.982;6.658;2023-12-20T04:51:52;46.05;;;6.18;;
58864;SDS011;45702;52.982;6.658;2023-12-20T04:54:18;42.60;;;5.47;;
58864;SDS011;45702;52.982;6.658;2023-12-20T04:56:44;46.45;;;6.15;;
58864;SDS011;45702;52.982;6.658;2023-12-20T04:59:10;43.65;;;6.30;;
58864;SDS011;45702;52.982;6.658;2023-12-20T05:01:36;41.45;;;6.00;;
58864;SDS011;45702;52.982;6.658;2023-12-20T05:04:02;36.83;;;4.93;;
58864;SDS011;45702;52.982;6.658;2023-12-20T05:06:29;42.67;;;5.78;;
58864;SDS011;45702;52.982;6.658;2023-12-20T05:08:55;54.17;;;5.95;;
58864;SDS011;45702;52.982;6.658;2023-12-20T05:11:21;46.63;;;5.45;;
58864;SDS011;45702;52.982;6.658;2023-12-20T05:13:47;45.85;;;5.38;;
58864;SDS011;45702;52.982;6.658;2023-12-20T05:16:13;36.20;;;6.35;;
58864;SDS011;45702;52.982;6.658;2023-12-20T05:18:40;45.22;;;5.10;;
58864;SDS011;45702;52.982;6.658;2023-12-20T05:21:06;41.75;;;6.07;;
58864;SDS011;45702;52.982;6.658;2023-12-20T05:23:32;35.13;;;5.05;;
58864;SDS011;45702;52.982;6.658;2023-12-20T05:25:58;34.60;;;5.28;;
58864;SDS011;45702;52.982;6.658;2023-12-20T05:28:24;38.17;;;5.50;;
58864;SDS011;45702;52.982;6.658;2023-12-20T05:30:51;42.83;;;5.28;;
58864;SDS011;45702;52.982;6.658;2023-12-20T05:33:17;57.38;;;6.35;;
58864;SDS011;45702;52.982;6.658;2023-12-20T05:35:43;37.38;;;4.88;;
58864;SDS011;45702;52.982;6.658;2023-12-20T05:38:09;33.17;;;4.88;;
58864;SDS011;45702;52.982;6.658;2023-12-20T05:40:35;40.80;;;6.30;;
58864;SDS011;45702;52.982;6.658;2023-12-20T05:43:01;41.75;;;5.85;;
58864;SDS011;45702;52.982;6.658;2023-12-20T05:45:27;47.42;;;5.95;;
58864;SDS011;45702;52.982;6.658;2023-12-20T05:47:54;36.97;;;4.88;;
58864;SDS011;45702;52.982;6.658;2023-12-20T05:50:20;39.45;;;5.93;;
58864;SDS011;45702;52.982;6.658;2023-12-20T05:52:46;47.42;;;5.80;;
58864;SDS011;45702;52.982;6.658;2023-12-20T05:55:12;40.10;;;5.90;;
58864;SDS011;45702;52.982;6.658;2023-12-20T05:57:39;49.53;;;6.05;;
58864;SDS011;45702;52.982;6.658;2023-12-20T06:00:05;49.67;;;4.90;;
58864;SDS011;45702;52.982;6.658;2023-12-20T06:02:31;40.13;;;5.00;;
58864;SDS011;45702;52.982;6.658;2023-12-20T06:04:57;41.45;;;5.20;;
58864;SDS011;45702;52.982;6.658;2023-12-20T06:07:24;39.63;;;5.20;;
58864;SDS011;45702;52.982;6.658;2023-12-20T06:09:50;38.33;;;5.68;;
58864;SDS011;45702;52.982;6.658;2023-12-20T06:12:16;44.92;;;5.50;;
58864;SDS011;45702;52.982;6.658;2023-12-20T06:14:42;48.42;;;5.40;;
58864;SDS011;45702;52.982;6.658;2023-12-20T06:17:08;42.00;;;5.45;;
58864;SDS011;45702;52.982;6.658;2023-12-20T06:19:34;51.60;;;5.32;;
58864;SDS011;45702;52.982;6.658;2023-12-20T06:22:00;41.70;;;6.25;;
58864;SDS011;45702;52.982;6.658;2023-12-20T06:24:26;43.03;;;5.05;;
58864;SDS011;45702;52.982;6.658;2023-12-20T06:26:53;47.67;;;4.68;;
58864;SDS011;45702;52.982;6.658;2023-12-20T06:29:20;45.75;;;5.75;;
58864;SDS011;45702;52.982;6.658;2023-12-20T06:31:46;49.65;;;5.95;;
58864;SDS011;45702;52.982;6.658;2023-12-20T06:34:12;44.38;;;5.07;;
58864;SDS011;45702;52.982;6.658;2023-12-20T06:36:38;36.35;;;4.63;;
58864;SDS011;45702;52.982;6.658;2023-12-20T06:39:04;48.83;;;5.43;;
58864;SDS011;45702;52.982;6.658;2023-12-20T06:41:30;39.38;;;5.60;;
58864;SDS011;45702;52.982;6.658;2023-12-20T06:43:56;40.45;;;5.70;;
58864;SDS011;45702;52.982;6.658;2023-12-20T06:46:23;34.67;;;5.75;;
58864;SDS011;45702;52.982;6.658;2023-12-20T06:48:49;43.97;;;5.22;;
58864;SDS011;45702;52.982;6.658;2023-12-20T06:51:15;31.40;;;5.13;;
58864;SDS011;45702;52.982;6.658;2023-12-20T06:53:42;36.65;;;5.45;;
58864;SDS011;45702;52.982;6.658;2023-12-20T06:56:10;49.22;;;5.45;;
58864;SDS011;45702;52.982;6.658;2023-12-20T07:01:03;36.40;;;4.70;;
58864;SDS011;45702;52.982;6.658;2023-12-20T07:03:30;46.88;;;5.47;;
58864;SDS011;45702;52.982;6.658;2023-12-20T07:05:56;35.38;;;5.05;;
58864;SDS011;45702;52.982;6.658;2023-12-20T07:08:22;42.55;;;6.80;;
58864;SDS011;45702;52.982;6.658;2023-12-20T07:10:48;43.08;;;5.38;;
58864;SDS011;45702;52.982;6.658;2023-12-20T07:13:14;34.78;;;5.63;;
58864;SDS011;45702;52.982;6.658;2023-12-20T07:15:40;42.17;;;6.10;;
58864;SDS011;45702;52.982;6.658;2023-12-20T07:18:06;36.78;;;5.55;;
58864;SDS011;45702;52.982;6.658;2023-12-20T07:20:32;39.10;;;5.40;;
58864;SDS011;45702;52.982;6.658;2023-12-20T07:22:58;35.83;;;5.80;;
58864;SDS011;45702;52.982;6.658;2023-12-20T07:25:24;42.47;;;5.13;;
58864;SDS011;45702;52.982;6.658;2023-12-20T07:27:50;40.45;;;5.32;;
58864;SDS011;45702;52.982;6.658;2023-12-20T07:30:16;36.28;;;5.07;;
58864;SDS011;45702;52.982;6.658;2023-12-20T07:32:42;35.38;;;4.72;;
58864;SDS011;45702;52.982;6.658;2023-12-20T07:35:09;44.10;;;5.60;;
58864;SDS011;45702;52.982;6.658;2023-12-20T07:37:35;40.55;;;5.03;;
58864;SDS011;45702;52.982;6.658;2023-12-20T07:40:01;38.13;;;4.95;;
58864;SDS011;45702;52.982;6.658;2023-12-20T07:42:28;36.95;;;5.72;;
58864;SDS011;45702;52.982;6.658;2023-12-20T07:44:54;46.72;;;5.75;;
58864;SDS011;45702;52.982;6.658;2023-12-20T07:47:20;42.63;;;5.43;;
58864;SDS011;45702;52.982;6.658;2023-12-20T07:49:49;38.30;;;5.55;;
58864;SDS011;45702;52.982;6.658;2023-12-20T07:52:17;51.58;;;6.82;;
58864;SDS011;45702;52.982;6.658;2023-12-20T07:54:43;56.47;;;5.63;;
58864;SDS011;45702;52.982;6.658;2023-12-20T07:57:10;53.25;;;6.20;;
58864;SDS011;45702;52.982;6.658;2023-12-20T07:59:36;49.33;;;5.60;;
58864;SDS011;45702;52.982;6.658;2023-12-20T08:02:02;44.25;;;5.97;;
58864;SDS011;45702;52.982;6.658;2023-12-20T08:04:28;37.90;;;5.07;;
58864;SDS011;45702;52.982;6.658;2023-12-20T08:06:54;44.67;;;6.03;;
58864;SDS011;45702;52.982;6.658;2023-12-20T08:09:20;47.67;;;6.22;;
58864;SDS011;45702;52.982;6.658;2023-12-20T08:11:47;41.67;;;5.45;;
58864;SDS011;45702;52.982;6.658;2023-12-20T08:14:13;40.17;;;5.90;;
58864;SDS011;45702;52.982;6.658;2023-12-20T08:16:39;39.63;;;5.40;;
58864;SDS011;45702;52.982;6.658;2023-12-20T08:19:05;37.50;;;5.72;;
58864;SDS011;45702;52.982;6.658;2023-12-20T08:21:31;44.53;;;5.40;;
58864;SDS011;45702;52.982;6.658;2023-12-20T08:23:57;40.60;;;5.82;;
58864;SDS011;45702;52.982;6.658;2023-12-20T08:26:25;40.03;;;5.70;;
58864;SDS011;45702;52.982;6.658;2023-12-20T08:28:57;48.85;;;6.45;;
58864;SDS011;45702;52.982;6.658;2023-12-20T08:31:28;49.45;;;5.32;;
58864;SDS011;45702;52.982;6.658;2023-12-20T08:33:55;41.63;;;6.55;;
58864;SDS011;45702;52.982;6.658;2023-12-20T08:36:21;41.45;;;5.63;;
58864;SDS011;45702;52.982;6.658;2023-12-20T08:38:48;32.63;;;4.85;;
58864;SDS011;45702;52.982;6.658;2023-12-20T08:41:15;26.27;;;4.10;;
58864;SDS011;45702;52.982;6.658;2023-12-20T08:43:42;15.90;;;2.60;;
58864;SDS011;45702;52.982;6.658;2023-12-20T08:46:08;24.38;;;3.22;;
58864;SDS011;45702;52.982;6.658;2023-12-20T08:48:37;20.60;;;3.25;;
58864;SDS011;45702;52.982;6.658;2023-12-20T08:51:04;31.65;;;3.88;;
58864;SDS011;45702;52.982;6.658;2023-12-20T08:53:33;24.95;;;3.95;;
58864;SDS011;45702;52.982;6.658;2023-12-20T08:55:59;28.75;;;3.70;;
58864;SDS011;45702;52.982;6.658;2023-12-20T08:58:27;24.77;;;4.20;;
58864;SDS011;45702;52.982;6.658;2023-12-20T09:00:53;32.30;;;4.88;;
58864;SDS011;45702;52.982;6.658;2023-12-20T09:03:19;31.85;;;3.90;;
58864;SDS011;45702;52.982;6.658;2023-12-20T09:05:45;29.83;;;4.55;;
58864;SDS011;45702;52.982;6.658;2023-12-20T09:08:11;28.80;;;4.97;;
58864;SDS011;45702;52.982;6.658;2023-12-20T09:10:37;45.88;;;5.45;;
58864;SDS011;45702;52.982;6.658;2023-12-20T09:13:03;33.25;;;5.68;;
58864;SDS011;45702;52.982;6.658;2023-12-20T09:15:29;46.38;;;5.60;;
58864;SDS011;45702;52.982;6.658;2023-12-20T09:17:55;39.25;;;5.10;;
58864;SDS011;45702;52.982;6.658;2023-12-20T09:20:21;42.67;;;5.60;;
58864;SDS011;45702;52.982;6.658;2023-12-20T09:22:48;48.15;;;5.88;;
58864;SDS011;45702;52.982;6.658;2023-12-20T09:25:14;43.10;;;5.60;;
58864;SDS011;45702;52.982;6.658;2023-12-20T09:27:42;28.53;;;5.00;;
58864;SDS011;45702;52.982;6.658;2023-12-20T09:30:08;42.20;;;6.00;;
58864;SDS011;45702;52.982;6.658;2023-12-20T09:32:35;41.60;;;5.80;;
58864;SDS011;45702;52.982;6.658;2023-12-20T09:35:01;25.50;;;2.85;;
58864;SDS011;45702;52.982;6.658;2023-12-20T09:37:28;16.15;;;2.08;;
58864;SDS011;45702;52.982;6.658;2023-12-20T09:39:54;9.10;;;1.30;;
58864;SDS011;45702;52.982;6.658;2023-12-20T09:42:33;10.52;;;1.48;;
58864;SDS011;45702;52.982;6.658;2023-12-20T09:45:03;11.38;;;1.58;;
58864;SDS011;45702;52.982;6.658;2023-12-20T09:47:29;12.82;;;1.65;;
58864;SDS011;45702;52.982;6.658;2023-12-20T09:49:55;11.65;;;1.98;;
58864;SDS011;45702;52.982;6.658;2023-12-20T09:52:22;14.75;;;1.58;;
58864;SDS011;45702;52.982;6.658;2023-12-20T09:54:49;10.68;;;1.40;;
58864;SDS011;45702;52.982;6.658;2023-12-20T09:57:20;15.10;;;1.70;;
58864;SDS011;45702;52.982;6.658;2023-12-20T09:59:46;11.50;;;2.03;;
58864;SDS011;45702;52.982;6.658;2023-12-20T10:02:13;10.15;;;1.60;;
58864;SDS011;45702;52.982;6.658;2023-12-20T10:04:42;13.40;;;1.47;;
58864;SDS011;45702;52.982;6.658;2023-12-20T10:07:12;13.80;;;1.83;;
58864;SDS011;45702;52.982;6.658;2023-12-20T10:09:38;17.90;;;2.17;;
58864;SDS011;45702;52.982;6.658;2023-12-20T10:12:05;23.60;;;2.20;;
58864;SDS011;45702;52.982;6.658;2023-12-20T10:14:32;13.68;;;2.17;;
58864;SDS011;45702;52.982;6.658;2023-12-20T10:17:01;16.05;;;2.45;;
58864;SDS011;45702;52.982;6.658;2023-12-20T10:19:28;14.85;;;2.15;;
58864;SDS011;45702;52.982;6.658;2023-12-20T10:21:54;17.58;;;2.88;;
58864;SDS011;45702;52.982;6.658;2023-12-20T10:24:20;15.23;;;2.17;;
58864;SDS011;45702;52.982;6.658;2023-12-20T10:26:46;19.08;;;2.50;;
58864;SDS011;45702;52.982;6.658;2023-12-20T10:29:12;11.80;;;2.50;;
58864;SDS011;45702;52.982;6.658;2023-12-20T10:31:38;11.32;;;1.80;;
58864;SDS011;45702;52.982;6.658;2023-12-20T10:34:04;20.25;;;2.03;;
58864;SDS011;45702;52.982;6.658;2023-12-20T10:36:33;13.98;;;2.20;;
58864;SDS011;45702;52.982;6.658;2023-12-20T10:39:01;18.08;;;2.15;;
58864;SDS011;45702;52.982;6.658;2023-12-20T10:41:31;16.30;;;1.77;;
58864;SDS011;45702;52.982;6.658;2023-12-20T10:43:59;21.70;;;2.20;;
58864;SDS011;45702;52.982;6.658;2023-12-20T10:46:29;13.88;;;1.83;;
58864;SDS011;45702;52.982;6.658;2023-12-20T10:48:55;16.02;;;2.28;;
58864;SDS011;45702;52.982;6.658;2023-12-20T10:51:22;22.48;;;2.05;;
58864;SDS011;45702;52.982;6.658;2023-12-20T10:53:49;18.35;;;2.50;;
58864;SDS011;45702;52.982;6.658;2023-12-20T10:58:44;19.90;;;2.10;;
58864;SDS011;45702;52.982;6.658;2023-12-20T11:01:13;17.23;;;2.35;;
58864;SDS011;45702;52.982;6.658;2023-12-20T11:03:50;16.10;;;2.08;;
58864;SDS011;45702;52.982;6.658;2023-12-20T11:09:10;19.20;;;2.25;;
58864;SDS011;45702;52.982;6.658;2023-12-20T11:14:13;13.45;;;1.80;;
58864;SDS011;45702;52.982;6.658;2023-12-20T11:16:41;15.88;;;2.03;;
58864;SDS011;45702;52.982;6.658;2023-12-20T11:19:07;13.30;;;2.10;;
58864;SDS011;45702;52.982;6.658;2023-12-20T11:21:33;18.63;;;2.00;;
58864;SDS011;45702;52.982;6.658;2023-12-20T11:23:59;23.02;;;2.28;;
58864;SDS011;45702;52.982;6.658;2023-12-20T11:26:29;24.48;;;2.67;;
58864;SDS011;45702;52.982;6.658;2023-12-20T11:31:40;24.33;;;2.38;;
58864;SDS011;45702;52.982;6.658;2023-12-20T11:34:13;15.75;;;2.45;;
58864;SDS011;45702;52.982;6.658;2023-12-20T11:36:39;17.80;;;2.28;;
58864;SDS011;45702;52.982;6.658;2023-12-20T11:39:05;22.55;;;2.60;;
58864;SDS011;45702;52.982;6.658;2023-12-20T11:41:33;15.95;;;2.30;;
58864;SDS011;45702;52.982;6.658;2023-12-20T11:44:00;17.92;;;2.40;;
58864;SDS011;45702;52.982;6.658;2023-12-20T11:46:26;20.27;;;2.30;;
58864;SDS011;45702;52.982;6.658;2023-12-20T11:48:52;21.13;;;2.53;;
58864;SDS011;45702;52.982;6.658;2023-12-20T11:51:18;16.23;;;2.42;;
58864;SDS011;45702;52.982;6.658;2023-12-20T11:53:44;16.58;;;2.22;;
58864;SDS011;45702;52.982;6.658;2023-12-20T11:56:10;19.70;;;2.58;;
58864;SDS011;45702;52.982;6.658;2023-12-20T11:58:37;18.73;;;2.30;;
58864;SDS011;45702;52.982;6.658;2023-12-20T12:01:04;16.48;;;2.17;;
58864;SDS011;45702;52.982;6.658;2023-12-20T12:03:32;18.92;;;2.38;;
58864;SDS011;45702;52.982;6.658;2023-12-20T12:05:58;18.90;;;2.15;;
58864;SDS011;45702;52.982;6.658;2023-12-20T12:08:25;15.93;;;2.30;;
58864;SDS011;45702;52.982;6.658;2023-12-20T12:10:52;20.60;;;2.88;;
58864;SDS011;45702;52.982;6.658;2023-12-20T12:13:18;16.15;;;2.28;;
58864;SDS011;45702;52.982;6.658;2023-12-20T12:15:44;18.08;;;2.78;;
58864;SDS011;45702;52.982;6.658;2023-12-20T12:18:10;21.02;;;2.42;;
58864;SDS011;45702;52.982;6.658;2023-12-20T12:20:36;22.27;;;2.70;;
58864;SDS011;45702;52.982;6.658;2023-12-20T12:23:04;17.45;;;2.22;;
58864;SDS011;45702;52.982;6.658;2023-12-20T12:25:30;22.23;;;2.58;;
58864;SDS011;45702;52.982;6.658;2023-12-20T12:28:00;25.75;;;3.53;;
58864;SDS011;45702;52.982;6.658;2023-12-20T12:30:26;20.45;;;3.85;;
58864;SDS011;45702;52.982;6.658;2023-12-20T12:32:53;25.40;;;2.92;;
58864;SDS011;45702;52.982;6.658;2023-12-20T12:35:19;24.38;;;2.50;;
58864;SDS011;45702;52.982;6.658;2023-12-20T12:37:46;27.70;;;2.50;;
58864;SDS011;45702;52.982;6.658;2023-12-20T12:40:15;26.08;;;3.13;;
58864;SDS011;45702;52.982;6.658;2023-12-20T12:42:43;18.48;;;2.63;;
58864;SDS011;45702;52.982;6.658;2023-12-20T12:45:09;18.60;;;3.40;;
58864;SDS011;45702;52.982;6.658;2023-12-20T12:47:36;19.02;;;2.50;;
58864;SDS011;45702;52.982;6.658;2023-12-20T12:50:03;22.67;;;2.50;;
58864;SDS011;45702;52.982;6.658;2023-12-20T12:52:30;26.75;;;3.35;;
58864;SDS011;45702;52.982;6.658;2023-12-20T12:54:56;24.05;;;2.90;;
58864;SDS011;45702;52.982;6.658;2023-12-20T12:57:22;20.63;;;2.97;;
58864;SDS011;45702;52.982;6.658;2023-12-20T12:59:49;15.65;;;2.60;;
58864;SDS011;45702;52.982;6.658;2023-12-20T13:02:15;28.02;;;3.03;;
58864;SDS011;45702;52.982;6.658;2023-12-20T13:04:41;25.90;;;2.70;;
58864;SDS011;45702;52.982;6.658;2023-12-20T13:07:08;24.58;;;3.17;;
58864;SDS011;45702;52.982;6.658;2023-12-20T13:09:38;21.55;;;2.30;;
58864;SDS011;45702;52.982;6.658;2023-12-20T13:12:04;19.45;;;2.55;;
58864;SDS011;45702;52.982;6.658;2023-12-20T13:14:34;20.08;;;2.40;;
58864;SDS011;45702;52.982;6.658;2023-12-20T13:17:02;24.88;;;2.70;;
58864;SDS011;45702;52.982;6.658;2023-12-20T13:19:29;27.02;;;3.03;;
58864;SDS011;45702;52.982;6.658;2023-12-20T13:21:55;23.17;;;2.50;;
58864;SDS011;45702;52.982;6.658;2023-12-20T13:24:23;21.10;;;2.67;;
58864;SDS011;45702;52.982;6.658;2023-12-20T13:26:49;31.60;;;2.50;;
58864;SDS011;45702;52.982;6.658;2023-12-20T13:29:15;19.85;;;2.42;;
58864;SDS011;45702;52.982;6.658;2023-12-20T13:31:41;19.92;;;2.65;;
58864;SDS011;45702;52.982;6.658;2023-12-20T13:34:08;12.13;;;2.00;;
58864;SDS011;45702;52.982;6.658;2023-12-20T13:36:34;18.38;;;2.15;;
58864;SDS011;45702;52.982;6.658;2023-12-20T13:39:01;18.52;;;2.60;;
58864;SDS011;45702;52.982;6.658;2023-12-20T13:41:29;18.43;;;2.37;;
58864;SDS011;45702;52.982;6.658;2023-12-20T13:43:55;17.70;;;2.35;;
58864;SDS011;45702;52.982;6.658;2023-12-20T13:46:21;14.60;;;2.10;;
58864;SDS011;45702;52.982;6.658;2023-12-20T13:48:48;13.32;;;2.33;;
58864;SDS011;45702;52.982;6.658;2023-12-20T13:51:14;12.93;;;2.10;;
58864;SDS011;45702;52.982;6.658;2023-12-20T13:53:41;18.13;;;2.20;;
58864;SDS011;45702;52.982;6.658;2023-12-20T13:56:07;18.27;;;2.35;;
58864;SDS011;45702;52.982;6.658;2023-12-20T13:58:33;12.20;;;2.03;;
58864;SDS011;45702;52.982;6.658;2023-12-20T14:00:59;16.45;;;2.40;;
58864;SDS011;45702;52.982;6.658;2023-12-20T14:03:25;14.43;;;2.55;;
58864;SDS011;45702;52.982;6.658;2023-12-20T14:05:51;15.68;;;2.50;;
58864;SDS011;45702;52.982;6.658;2023-12-20T14:08:17;13.05;;;2.00;;
58864;SDS011;45702;52.982;6.658;2023-12-20T14:10:43;21.38;;;2.40;;
58864;SDS011;45702;52.982;6.658;2023-12-20T14:13:09;16.85;;;2.20;;
58864;SDS011;45702;52.982;6.658;2023-12-20T14:15:35;13.98;;;2.70;;
58864;SDS011;45702;52.982;6.658;2023-12-20T14:18:05;15.43;;;2.40;;
58864;SDS011;45702;52.982;6.658;2023-12-20T14:20:31;17.67;;;2.33;;
58864;SDS011;45702;52.982;6.658;2023-12-20T14:23:00;17.88;;;2.90;;
58864;SDS011;45702;52.982;6.658;2023-12-20T14:25:26;21.10;;;2.80;;
58864;SDS011;45702;52.982;6.658;2023-12-20T14:27:52;18.73;;;2.47;;
58864;SDS011;45702;52.982;6.658;2023-12-20T14:30:18;15.25;;;2.25;;
58864;SDS011;45702;52.982;6.658;2023-12-20T14:32:44;13.52;;;2.13;;
58864;SDS011;45702;52.982;6.658;2023-12-20T14:35:12;29.00;;;2.70;;
58864;SDS011;45702;52.982;6.658;2023-12-20T14:37:38;20.30;;;2.63;;
58864;SDS011;45702;52.982;6.658;2023-12-20T14:40:09;16.30;;;2.00;;
58864;SDS011;45702;52.982;6.658;2023-12-20T14:42:40;22.67;;;2.42;;